NORTHEAST SUFFOLK  -  Special Weather Statement Special Weather Statement        NORTHERN NASSAU  -  Special Weather Statement Special Weather Statement        NORTHWEST SUFFOLK  -  Special Weather Statement Special Weather Statement        SOUTHEAST SUFFOLK  -  Special Weather Statement Special Weather Statement        SOUTHERN NASSAU  -  Special Weather Statement Special Weather Statement        SOUTHWEST SUFFOLK  -  Special Weather Statement Special Weather Statement      

Active alerts

Northern Nassau
  Details for Northern Nassau Special Weather Statement
Southern Nassau
  Details for Southern Nassau Special Weather Statement
Northwest Suffolk
  Details for Northwest Suffolk Special Weather Statement
Southwest Suffolk
  Details for Southwest Suffolk Special Weather Statement
Northeast Suffolk
  Details for Northeast Suffolk Special Weather Statement
Southeast Suffolk
  Details for Southeast Suffolk Special Weather Statement


WXM80 ListenWXM80 Stop

You find our weather info also at:

UK Metoffice

WeatherCloud

Weather Underground

Northeastern Weather Network

AWEKAS

Citizen Weather Observer Program (CWOP)

HAMweather, WeatherForYou, PWS Weather


Weather Underground History page Text

Daily Summary for March 10, 2017 Units:  English    Metric   Both
« Previous Day
Next Day »
Daily Weekly Monthly Yearly Custom
  High: Low: Average:
Temperature: 46.5 °F 23.6 °F 34.2 °F
Dew Point: 32.3 °F 10.9 °F 27.1 °F
Humidity: 95 % 44 % 77 %
Wind Speed: 13.8 mph 0.1 mph 5.7 mph
Wind Gust: 26.5 mph - -
Wind:- - South
Pressure: 29.97 in 29.74 in -
Precipitation: 0.27 in    
Historical Graphs
 
 
Tabular Data for March 10, 2017
Time Temperature Dew Point Pressure Wind Wind Speed Wind Gust Humidity Rainfall Rate (Hourly)
00:03 46.5 °F 26.3 °F 29.95 in NW 1.2 mph 6.9 mph 45 % 0.00 in
00:08 46.5 °F 25.7 °F 29.94 in NW 3.6 mph 8.1 mph 44 % 0.00 in
00:13 46.4 °F 26.2 °F 29.94 in West 2.8 mph 3.5 mph 45 % 0.00 in
00:18 46.3 °F 27.7 °F 29.94 in WNW 0.1 mph 1.2 mph 48 % 0.00 in
00:23 46.3 °F 28.7 °F 29.94 in NW 1.6 mph 3.5 mph 50 % 0.00 in
00:28 46.1 °F 28.5 °F 29.94 in NW 1.5 mph 3.5 mph 50 % 0.00 in
00:33 46.0 °F 28.4 °F 29.93 in NNW 1.0 mph 3.5 mph 50 % 0.00 in
00:38 45.8 °F 28.2 °F 29.93 in North 2.2 mph 3.5 mph 50 % 0.00 in
00:44 45.6 °F 28.0 °F 29.92 in North 1.9 mph 4.6 mph 50 % 0.00 in
00:49 45.5 °F 29.3 °F 29.93 in North 1.8 mph 4.0 mph 53 % 0.00 in
00:54 45.3 °F 30.1 °F 29.92 in NNE 1.1 mph 3.0 mph 55 % 0.00 in
00:59 45.1 °F 29.9 °F 29.93 in NNE 1.4 mph 2.3 mph 55 % 0.00 in
01:04 44.8 °F 29.2 °F 29.92 in North 1.4 mph 4.6 mph 54 % 0.00 in
01:09 44.6 °F 28.5 °F 29.92 in NW 6.0 mph 8.1 mph 53 % 0.00 in
01:14 44.4 °F 27.4 °F 29.92 in NNE 3.5 mph 5.8 mph 51 % 0.00 in
01:19 44.4 °F 26.9 °F 29.92 in North 4.5 mph 6.0 mph 50 % 0.00 in
01:24 44.3 °F 26.8 °F 29.91 in NNE 4.4 mph 5.8 mph 50 % 0.00 in
01:29 44.3 °F 27.3 °F 29.91 in NNE 7.3 mph 10.4 mph 51 % 0.00 in
01:34 44.3 °F 29.1 °F 29.91 in NNE 4.9 mph 10.4 mph 55 % 0.00 in
01:39 44.2 °F 29.0 °F 29.91 in NNE 4.3 mph 6.9 mph 55 % 0.00 in
01:44 44.1 °F 28.9 °F 29.91 in NE 4.6 mph 6.9 mph 55 % 0.00 in
01:49 43.8 °F 30.0 °F 29.90 in NNE 3.3 mph 5.8 mph 58 % 0.00 in
01:55 43.7 °F 30.3 °F 29.91 in NNE 4.5 mph 6.9 mph 59 % 0.00 in
02:00 43.4 °F 29.6 °F 29.90 in NNE 7.4 mph 8.1 mph 58 % 0.00 in
02:05 43.2 °F 29.4 °F 29.90 in NNE 5.9 mph 10.4 mph 58 % 0.00 in
02:10 43.0 °F 28.8 °F 29.90 in NNE 4.3 mph 9.2 mph 57 % 0.00 in
02:15 42.8 °F 29.5 °F 29.89 in NE 3.5 mph 4.6 mph 59 % 0.00 in
02:20 42.7 °F 30.6 °F 29.89 in ENE 3.2 mph 8.1 mph 62 % 0.00 in
02:25 42.5 °F 31.2 °F 29.90 in NE 2.4 mph 4.6 mph 64 % 0.00 in
02:30 42.4 °F 30.7 °F 29.90 in ENE 2.2 mph 3.5 mph 63 % 0.00 in
02:35 42.3 °F 30.6 °F 29.90 in NNE 1.6 mph 3.5 mph 63 % 0.00 in
02:40 42.2 °F 30.5 °F 29.90 in NNE 3.8 mph 6.9 mph 63 % 0.00 in
02:45 42.1 °F 30.4 °F 29.90 in NNE 3.1 mph 6.0 mph 63 % 0.00 in
02:50 42.0 °F 30.7 °F 29.90 in ENE 2.8 mph 6.9 mph 64 % 0.00 in
02:55 41.8 °F 30.9 °F 29.90 in ENE 2.8 mph 4.6 mph 65 % 0.00 in
03:01 41.6 °F 30.7 °F 29.90 in NE 4.2 mph 6.9 mph 65 % 0.00 in
03:06 41.5 °F 30.6 °F 29.89 in ENE 4.3 mph 7.0 mph 65 % 0.00 in
03:11 41.4 °F 30.5 °F 29.90 in ENE 4.4 mph 5.8 mph 65 % 0.00 in
03:16 41.3 °F 30.4 °F 29.90 in ENE 2.8 mph 4.6 mph 65 % 0.00 in
03:21 41.2 °F 30.7 °F 29.91 in ENE 3.2 mph 4.6 mph 66 % 0.00 in
03:26 41.1 °F 30.6 °F 29.91 in NE 2.7 mph 4.0 mph 66 % 0.00 in
03:31 41.1 °F 30.6 °F 29.91 in ENE 2.2 mph 3.5 mph 66 % 0.00 in
03:36 41.0 °F 30.5 °F 29.90 in ENE 2.0 mph 4.0 mph 66 % 0.00 in
03:41 41.0 °F 30.1 °F 29.88 in ENE 3.0 mph 4.6 mph 65 % 0.00 in
03:46 40.9 °F 30.0 °F 29.89 in NE 2.2 mph 3.5 mph 65 % 0.00 in
03:51 40.9 °F 30.4 °F 29.88 in NE 1.0 mph 2.3 mph 66 % 0.00 in
03:56 40.8 °F 30.7 °F 29.88 in ENE 1.2 mph 3.5 mph 67 % 0.00 in
04:01 40.8 °F 30.7 °F 29.88 in ENE 1.0 mph 2.0 mph 67 % 0.00 in
04:07 40.7 °F 30.6 °F 29.88 in ENE 0.6 mph 1.2 mph 67 % 0.00 in
04:12 40.7 °F 31.0 °F 29.88 in ENE 0.5 mph 3.5 mph 68 % 0.00 in
04:17 40.6 °F 31.2 °F 29.88 in ENE 1.7 mph 3.5 mph 69 % 0.00 in
04:22 40.6 °F 31.2 °F 29.88 in NE 2.2 mph 4.6 mph 69 % 0.00 in
04:27 40.5 °F 31.1 °F 29.88 in NE 1.7 mph 3.5 mph 69 % 0.00 in
04:32 40.5 °F 31.5 °F 29.87 in East 3.4 mph 4.6 mph 70 % 0.00 in
04:37 40.4 °F 29.6 °F 29.87 in ENE 8.3 mph 11.5 mph 65 % 0.00 in
04:42 40.2 °F 29.0 °F 29.87 in ENE 4.7 mph 9.2 mph 64 % 0.00 in
04:47 40.0 °F 29.2 °F 29.87 in ENE 11.0 mph 15.0 mph 65 % 0.00 in
04:52 39.8 °F 28.6 °F 29.87 in North 8.6 mph 19.6 mph 64 % 0.00 in
04:57 39.6 °F 28.8 °F 29.87 in ENE 6.3 mph 10.4 mph 65 % 0.00 in
05:02 39.4 °F 29.0 °F 29.86 in NNE 6.6 mph 11.5 mph 66 % 0.00 in
05:08 39.0 °F 29.0 °F 29.86 in NNE 8.5 mph 10.4 mph 67 % 0.00 in
05:13 38.7 °F 28.7 °F 29.85 in NE 5.0 mph 12.7 mph 67 % 0.00 in
05:18 38.4 °F 28.8 °F 29.86 in NNE 5.6 mph 6.9 mph 68 % 0.00 in
05:23 38.1 °F 28.8 °F 29.86 in ENE 5.8 mph 11.5 mph 69 % 0.00 in
05:28 37.8 °F 28.9 °F 29.86 in NE 7.0 mph 13.0 mph 70 % 0.00 in
05:33 37.5 °F 28.6 °F 29.85 in NE 8.0 mph 14.0 mph 70 % 0.00 in
05:38 37.2 °F 28.7 °F 29.85 in NE 5.9 mph 8.1 mph 71 % 0.00 in
05:43 37.1 °F 28.6 °F 29.85 in North 5.0 mph 8.1 mph 71 % 0.00 in
05:48 37.0 °F 28.8 °F 29.85 in NE 6.0 mph 12.0 mph 72 % 0.00 in
05:58 36.6 °F 28.8 °F 29.85 in NE 5.0 mph 9.2 mph 73 % 0.00 in
06:03 36.5 °F 29.0 °F 29.85 in ENE 6.0 mph 9.2 mph 74 % 0.00 in
06:08 36.3 °F 28.8 °F 29.85 in ENE 4.2 mph 5.8 mph 74 % 0.00 in
06:13 36.0 °F 28.5 °F 29.85 in ENE 10.9 mph 13.8 mph 74 % 0.00 in
06:18 35.8 °F 29.0 °F 29.86 in ENE 8.9 mph 13.8 mph 76 % 0.00 in
06:23 35.6 °F 29.1 °F 29.86 in NE 6.8 mph 11.5 mph 77 % 0.00 in
06:28 35.6 °F 29.4 °F 29.87 in NE 7.5 mph 13.8 mph 78 % 0.00 in
06:33 35.6 °F 29.4 °F 29.87 in ENE 4.6 mph 11.5 mph 78 % 0.00 in
06:39 35.5 °F 29.3 °F 29.88 in ENE 6.1 mph 11.5 mph 78 % 0.00 in
06:44 35.4 °F 29.8 °F 29.88 in NE 5.9 mph 10.4 mph 80 % 0.00 in
06:49 35.3 °F 29.7 °F 29.88 in ENE 7.7 mph 12.0 mph 80 % 0.00 in
06:54 35.3 °F 30.1 °F 29.88 in ENE 7.9 mph 11.5 mph 81 % 0.00 in
06:59 35.1 °F 29.9 °F 29.89 in ENE 8.9 mph 11.5 mph 81 % 0.00 in
07:04 34.7 °F 30.1 °F 29.88 in ENE 5.8 mph 10.4 mph 83 % 0.00 in
07:09 34.3 °F 30.3 °F 29.88 in NE 7.9 mph 12.7 mph 85 % 0.00 in
07:14 33.9 °F 30.2 °F 29.88 in ENE 8.2 mph 11.5 mph 86 % 0.00 in
07:19 33.5 °F 30.3 °F 29.88 in ENE 7.9 mph 12.7 mph 88 % 0.00 in
07:24 33.3 °F 30.4 °F 29.88 in ENE 6.5 mph 11.5 mph 89 % 0.00 in
07:29 33.0 °F 30.4 °F 29.87 in ENE 6.1 mph 11.5 mph 90 % 0.00 in
07:34 32.9 °F 30.6 °F 29.87 in ENE 6.8 mph 11.5 mph 91 % 0.00 in
07:40 32.8 °F 30.5 °F 29.87 in ENE 8.9 mph 11.5 mph 91 % 0.00 in
07:45 32.7 °F 30.6 °F 29.87 in ENE 8.3 mph 11.5 mph 92 % 0.00 in
07:50 32.6 °F 30.5 °F 29.86 in East 9.1 mph 11.5 mph 92 % 0.01 in
07:55 32.5 °F 30.4 °F 29.85 in ENE 5.6 mph 11.5 mph 92 % 0.01 in
08:00 32.4 °F 30.6 °F 29.85 in ENE 9.1 mph 13.8 mph 93 % 0.01 in
08:05 32.4 °F 30.6 °F 29.85 in ENE 9.2 mph 13.0 mph 93 % 0.01 in
08:10 32.3 °F 30.5 °F 29.85 in ENE 6.9 mph 10.4 mph 93 % 0.01 in
08:15 32.4 °F 30.6 °F 29.85 in NE 6.1 mph 9.2 mph 93 % 0.01 in
08:20 32.3 °F 30.8 °F 29.85 in ENE 8.5 mph 11.0 mph 94 % 0.02 in
08:25 32.2 °F 30.7 °F 29.85 in NE 5.6 mph 9.2 mph 94 % 0.02 in
08:30 32.3 °F 30.8 °F 29.84 in ENE 9.0 mph 15.0 mph 94 % 0.02 in
08:35 32.3 °F 30.8 °F 29.84 in ENE 8.4 mph 12.7 mph 94 % 0.02 in
08:41 32.3 °F 30.8 °F 29.84 in NE 8.8 mph 13.0 mph 94 % 0.02 in
08:46 32.3 °F 30.8 °F 29.84 in ENE 8.3 mph 10.4 mph 94 % 0.02 in
08:51 32.4 °F 30.9 °F 29.84 in ENE 8.0 mph 11.5 mph 94 % 0.02 in
08:56 32.5 °F 31.0 °F 29.84 in NE 6.2 mph 6.9 mph 94 % 0.02 in
09:01 32.5 °F 31.0 °F 29.83 in ENE 8.5 mph 10.4 mph 94 % 0.02 in
09:06 32.6 °F 31.1 °F 29.83 in ENE 6.4 mph 9.2 mph 94 % 0.03 in
09:11 32.6 °F 31.1 °F 29.83 in NE 8.4 mph 11.5 mph 94 % 0.03 in
09:16 32.5 °F 31.0 °F 29.83 in ENE 6.2 mph 9.2 mph 94 % 0.04 in
09:21 32.5 °F 31.0 °F 29.83 in NE 6.2 mph 9.2 mph 94 % 0.03 in
09:26 32.5 °F 31.0 °F 29.83 in ENE 9.6 mph 13.0 mph 94 % 0.03 in
09:31 32.4 °F 30.9 °F 29.84 in NE 6.2 mph 11.5 mph 94 % 0.04 in
09:36 32.4 °F 30.9 °F 29.83 in ENE 3.6 mph 10.4 mph 94 % 0.04 in
09:41 32.3 °F 30.8 °F 29.83 in NE 5.9 mph 9.2 mph 94 % 0.05 in
09:46 32.3 °F 30.8 °F 29.82 in ENE 4.8 mph 10.4 mph 94 % 0.05 in
09:52 32.3 °F 30.8 °F 29.82 in NE 5.0 mph 9.2 mph 94 % 0.04 in
09:57 32.1 °F 30.6 °F 29.82 in ENE 4.9 mph 10.0 mph 94 % 0.05 in
10:02 32.2 °F 30.9 °F 29.83 in NE 5.6 mph 10.0 mph 95 % 0.05 in
10:07 32.1 °F 30.6 °F 29.82 in ENE 8.3 mph 9.2 mph 94 % 0.05 in
10:12 32.2 °F 30.7 °F 29.82 in NE 4.1 mph 8.1 mph 94 % 0.05 in
10:17 32.2 °F 30.7 °F 29.81 in NE 2.9 mph 10.4 mph 94 % 0.04 in
10:22 32.2 °F 30.9 °F 29.80 in ENE 2.5 mph 7.0 mph 95 % 0.05 in
10:27 32.2 °F 30.9 °F 29.80 in ENE 5.0 mph 10.4 mph 95 % 0.04 in
10:32 31.9 °F 30.4 °F 29.80 in ENE 7.7 mph 11.5 mph 94 % 0.04 in
10:37 32.0 °F 30.7 °F 29.81 in ENE 6.6 mph 9.2 mph 95 % 0.05 in
10:42 32.2 °F 30.9 °F 29.81 in ENE 5.9 mph 8.1 mph 95 % 0.04 in
10:43 32.2 °F 30.9 °F 29.81 in ENE 5.8 mph 8.1 mph 95 % 0.04 in
10:48 32.2 °F 30.9 °F 29.80 in ENE 6.1 mph 8.0 mph 95 % 0.04 in
10:53 32.3 °F 31.0 °F 29.80 in NE 5.0 mph 9.0 mph 95 % 0.00 in
10:58 32.4 °F 31.1 °F 29.79 in NNE 2.9 mph 5.8 mph 95 % 0.04 in
11:03 32.5 °F 31.2 °F 29.79 in NE 2.0 mph 8.0 mph 95 % 0.00 in
11:08 32.5 °F 31.2 °F 29.79 in NNE 5.0 mph 7.0 mph 95 % 0.00 in
11:13 32.6 °F 31.3 °F 29.79 in NNE 3.0 mph 8.0 mph 95 % 0.00 in
11:18 32.6 °F 31.3 °F 29.81 in NE 3.0 mph 7.0 mph 95 % 0.00 in
11:23 32.6 °F 31.4 °F 29.80 in NE 2.0 mph 4.0 mph 95 % 0.00 in
11:28 32.7 °F 31.4 °F 29.79 in NNE 2.0 mph 4.0 mph 95 % 0.00 in
11:33 32.7 °F 31.4 °F 29.80 in NNE 3.0 mph 6.0 mph 95 % 0.00 in
11:38 32.8 °F 31.5 °F 29.80 in NNE 3.0 mph 7.0 mph 95 % 0.00 in
11:43 32.8 °F 31.5 °F 29.80 in NNE 3.0 mph 6.0 mph 95 % 0.00 in
11:48 32.8 °F 31.5 °F 29.80 in North 3.0 mph 7.0 mph 95 % 0.00 in
11:53 32.9 °F 31.6 °F 29.79 in NNE 6.0 mph 8.0 mph 95 % 0.00 in
11:58 32.9 °F 31.6 °F 29.78 in North 5.0 mph 6.9 mph 95 % 0.04 in
12:03 32.8 °F 31.5 °F 29.78 in North 5.0 mph 8.1 mph 95 % 0.04 in
12:08 32.8 °F 31.5 °F 29.79 in NNW 5.3 mph 7.0 mph 95 % 0.04 in
12:13 32.8 °F 31.5 °F 29.78 in NNE 4.4 mph 6.9 mph 95 % 0.04 in
12:18 32.8 °F 31.5 °F 29.79 in NNE 3.5 mph 4.6 mph 95 % 0.04 in
12:23 32.7 °F 31.4 °F 29.78 in NNW 3.5 mph 8.0 mph 95 % 0.04 in
12:28 32.8 °F 31.5 °F 29.78 in NW 3.0 mph 4.6 mph 95 % 0.05 in
12:33 32.8 °F 31.5 °F 29.78 in North 2.0 mph 4.0 mph 95 % 0.05 in
12:39 32.8 °F 31.5 °F 29.77 in NNE 4.4 mph 9.2 mph 95 % 0.05 in
12:44 32.7 °F 31.4 °F 29.77 in NNW 8.3 mph 11.5 mph 95 % 0.05 in
12:49 32.6 °F 31.3 °F 29.77 in North 5.8 mph 10.0 mph 95 % 0.04 in
12:54 32.5 °F 31.2 °F 29.77 in NNE 5.8 mph 8.1 mph 95 % 0.05 in
12:59 32.5 °F 31.2 °F 29.76 in North 6.1 mph 10.4 mph 95 % 0.04 in
13:04 32.5 °F 31.2 °F 29.76 in North 5.9 mph 10.4 mph 95 % 0.05 in
13:09 32.6 °F 31.3 °F 29.76 in North 6.4 mph 10.4 mph 95 % 0.05 in
13:14 32.6 °F 31.3 °F 29.76 in North 3.5 mph 9.2 mph 95 % 0.05 in
13:19 32.7 °F 31.4 °F 29.75 in NNE 5.1 mph 9.2 mph 95 % 0.05 in
13:24 32.7 °F 31.4 °F 29.76 in NNW 3.1 mph 6.9 mph 95 % 0.04 in
13:26 32.7 °F 31.4 °F 29.76 in NNW 1.9 mph 4.6 mph 95 % 0.04 in
13:31 32.8 °F 31.5 °F 29.75 in NW 3.5 mph 5.8 mph 95 % 0.05 in
13:36 32.8 °F 31.5 °F 29.75 in North 3.3 mph 5.8 mph 95 % 0.04 in
13:41 32.8 °F 31.5 °F 29.75 in NW 2.5 mph 6.9 mph 95 % 0.04 in
13:46 32.8 °F 31.5 °F 29.75 in NNW 2.1 mph 5.0 mph 95 % 0.05 in
13:52 32.9 °F 31.6 °F 29.75 in NW 3.0 mph 8.1 mph 95 % 0.04 in
13:57 33.0 °F 31.7 °F 29.75 in NNW 3.2 mph 4.6 mph 95 % 0.04 in
14:02 32.9 °F 31.4 °F 29.75 in North 4.5 mph 5.0 mph 94 % 0.03 in
14:07 32.8 °F 31.5 °F 29.75 in NNE 3.8 mph 6.0 mph 95 % 0.03 in
14:12 32.9 °F 31.4 °F 29.75 in NNE 2.9 mph 8.1 mph 94 % 0.03 in
14:17 32.9 °F 31.6 °F 29.75 in NW 2.7 mph 4.6 mph 95 % 0.02 in
14:22 32.8 °F 31.3 °F 29.75 in NNW 4.1 mph 6.9 mph 94 % 0.02 in
14:27 32.8 °F 31.3 °F 29.75 in North 2.8 mph 6.0 mph 94 % 0.02 in
14:32 32.6 °F 31.1 °F 29.75 in NNE 4.4 mph 7.0 mph 94 % 0.02 in
14:37 32.6 °F 31.1 °F 29.75 in NW 1.7 mph 3.5 mph 94 % 0.02 in
14:42 32.8 °F 31.3 °F 29.74 in NW 0.4 mph 2.3 mph 94 % 0.02 in
14:47 33.1 °F 31.8 °F 29.74 in WNW 1.9 mph 3.5 mph 95 % 0.01 in
14:53 33.3 °F 32.0 °F 29.74 in NNE 1.0 mph 3.5 mph 95 % 0.01 in
14:58 33.4 °F 31.9 °F 29.74 in NNW 0.4 mph 3.5 mph 94 % 0.02 in
15:03 33.6 °F 32.3 °F 29.74 in NNW 1.5 mph 4.6 mph 95 % 0.02 in
15:08 33.7 °F 32.2 °F 29.74 in NW 1.0 mph 6.0 mph 94 % 0.00 in
15:13 33.7 °F 32.2 °F 29.74 in WNW 3.9 mph 5.8 mph 94 % 0.02 in
15:18 33.7 °F 32.2 °F 29.74 in NNW 3.4 mph 7.0 mph 94 % 0.03 in
15:23 33.7 °F 32.1 °F 29.74 in NW 2.0 mph 9.0 mph 94 % 0.00 in
15:28 33.6 °F 32.1 °F 29.74 in NW 2.3 mph 4.6 mph 94 % 0.02 in
15:33 33.6 °F 32.1 °F 29.74 in NW 3.0 mph 9.0 mph 94 % 0.00 in
15:38 33.6 °F 32.1 °F 29.75 in NW 2.0 mph 6.0 mph 94 % 0.00 in
15:43 33.7 °F 32.1 °F 29.75 in NW 2.0 mph 6.0 mph 94 % 0.00 in
15:48 33.7 °F 31.9 °F 29.74 in NW 5.0 mph 8.0 mph 93 % 0.00 in
15:53 33.7 °F 31.9 °F 29.75 in NW 1.0 mph 6.0 mph 93 % 0.00 in
15:58 33.8 °F 32.0 °F 29.75 in WNW 4.6 mph 6.9 mph 93 % 0.01 in
16:03 33.8 °F 31.7 °F 29.75 in WNW 7.0 mph 16.0 mph 92 % 0.00 in
16:08 33.8 °F 31.5 °F 29.75 in NW 8.0 mph 19.0 mph 91 % 0.00 in
16:13 33.7 °F 30.5 °F 29.75 in WNW 3.0 mph 21.0 mph 88 % 0.00 in
16:18 33.7 °F 30.2 °F 29.76 in WNW 8.0 mph 15.0 mph 87 % 0.00 in
16:23 33.7 °F 30.5 °F 29.76 in WNW 9.0 mph 15.0 mph 88 % 0.00 in
16:28 33.7 °F 30.5 °F 29.76 in WNW 7.0 mph 13.0 mph 88 % 0.00 in
16:33 33.7 °F 30.5 °F 29.76 in WNW 6.0 mph 12.0 mph 88 % 0.00 in
16:38 33.7 °F 30.2 °F 29.76 in West 5.0 mph 18.0 mph 87 % 0.00 in
16:43 33.7 °F 30.0 °F 29.76 in WNW 3.0 mph 12.0 mph 86 % 0.00 in
16:48 33.8 °F 30.1 °F 29.76 in North 6.1 mph 11.5 mph 86 % 0.00 in
16:53 33.8 °F 30.1 °F 29.77 in NW 6.4 mph 9.2 mph 86 % 0.00 in
16:58 33.8 °F 29.8 °F 29.76 in NNW 5.2 mph 11.5 mph 85 % 0.00 in
17:03 33.9 °F 29.6 °F 29.77 in NW 5.0 mph 18.0 mph 84 % 0.00 in
17:08 33.9 °F 29.3 °F 29.77 in NW 5.0 mph 17.0 mph 83 % 0.00 in
17:13 34.0 °F 29.1 °F 29.77 in WNW 8.0 mph 15.0 mph 82 % 0.00 in
17:18 34.0 °F 28.2 °F 29.78 in NW 7.0 mph 23.0 mph 79 % 0.00 in
17:23 33.9 °F 27.8 °F 29.78 in NNW 6.0 mph 13.0 mph 78 % 0.00 in
17:28 33.8 °F 27.4 °F 29.78 in NNW 6.0 mph 13.0 mph 77 % 0.00 in
17:33 33.7 °F 27.3 °F 29.78 in NNW 7.0 mph 15.0 mph 77 % 0.00 in
17:38 33.6 °F 26.5 °F 29.78 in NNE 9.6 mph 17.3 mph 75 % 0.00 in
17:43 33.4 °F 26.3 °F 29.79 in NNW 6.0 mph 17.0 mph 75 % 0.00 in
17:48 33.2 °F 25.5 °F 29.79 in NNW 5.0 mph 14.0 mph 73 % 0.00 in
17:53 33.0 °F 25.3 °F 29.79 in NW 7.0 mph 18.0 mph 73 % 0.00 in
17:58 32.9 °F 25.2 °F 29.79 in NW 5.7 mph 11.0 mph 73 % 0.00 in
18:03 32.8 °F 24.1 °F 29.79 in West 4.3 mph 12.7 mph 70 % 0.00 in
18:08 32.7 °F 24.3 °F 29.80 in WNW 7.3 mph 11.5 mph 71 % 0.00 in
18:13 32.5 °F 23.8 °F 29.80 in NW 9.4 mph 12.7 mph 70 % 0.00 in
18:18 32.4 °F 23.4 °F 29.81 in WNW 6.6 mph 12.7 mph 69 % 0.00 in
18:23 32.3 °F 22.9 °F 29.81 in NNW 7.7 mph 15.0 mph 68 % 0.00 in
18:28 32.1 °F 22.4 °F 29.82 in WNW 8.8 mph 16.1 mph 67 % 0.00 in
18:33 31.9 °F 22.9 °F 29.82 in NW 7.2 mph 14.0 mph 69 % 0.00 in
18:38 31.9 °F 23.2 °F 29.82 in WNW 8.5 mph 16.1 mph 70 % 0.00 in
18:43 31.7 °F 21.6 °F 29.83 in WNW 5.4 mph 12.7 mph 66 % 0.00 in
18:48 31.6 °F 21.2 °F 29.83 in NW 8.8 mph 20.7 mph 65 % 0.00 in
18:53 31.5 °F 21.1 °F 29.83 in WNW 8.1 mph 13.8 mph 65 % 0.00 in
18:58 31.4 °F 21.0 °F 29.84 in NNW 6.9 mph 11.5 mph 65 % 0.00 in
19:03 31.2 °F 20.8 °F 29.84 in WNW 9.8 mph 14.0 mph 65 % 0.00 in
19:08 31.1 °F 20.3 °F 29.84 in NNW 5.6 mph 11.5 mph 64 % 0.00 in
19:13 30.9 °F 20.1 °F 29.84 in WNW 9.4 mph 19.6 mph 64 % 0.00 in
19:18 30.8 °F 20.4 °F 29.84 in NNE 5.9 mph 11.5 mph 65 % 0.00 in
19:23 30.7 °F 20.0 °F 29.84 in NW 6.6 mph 11.5 mph 64 % 0.00 in
19:28 30.6 °F 20.2 °F 29.85 in NNW 5.9 mph 10.4 mph 65 % 0.00 in
19:33 30.6 °F 19.9 °F 29.85 in SSW 4.8 mph 11.5 mph 64 % 0.00 in
19:38 30.5 °F 19.8 °F 29.85 in North 7.6 mph 16.1 mph 64 % 0.00 in
19:43 30.5 °F 19.8 °F 29.85 in NNW 5.0 mph 9.2 mph 64 % 0.00 in
19:48 30.4 °F 20.4 °F 29.85 in North 3.1 mph 11.0 mph 66 % 0.00 in
19:50 30.4 °F 20.4 °F 29.85 in NW 6.4 mph 11.5 mph 66 % 0.00 in
19:55 30.3 °F 20.3 °F 29.86 in NW 5.7 mph 7.0 mph 66 % 0.00 in
20:00 30.2 °F 20.2 °F 29.86 in NW 9.1 mph 13.8 mph 66 % 0.00 in
20:05 30.2 °F 19.5 °F 29.86 in NW 5.0 mph 10.0 mph 64 % 0.00 in
20:10 29.9 °F 18.8 °F 29.86 in NNW 9.3 mph 12.7 mph 63 % 0.00 in
20:15 29.8 °F 19.5 °F 29.87 in NW 10.5 mph 16.1 mph 65 % 0.00 in
20:20 29.6 °F 18.9 °F 29.87 in NW 8.0 mph 17.0 mph 64 % 0.00 in
20:25 29.5 °F 19.2 °F 29.87 in NNW 8.4 mph 15.0 mph 65 % 0.00 in
20:30 29.4 °F 18.7 °F 29.88 in NW 9.9 mph 21.9 mph 64 % 0.00 in
20:35 29.3 °F 19.0 °F 29.88 in North 4.7 mph 10.4 mph 65 % 0.00 in
20:40 29.1 °F 18.8 °F 29.88 in NW 8.8 mph 17.3 mph 65 % 0.00 in
20:45 29.0 °F 18.7 °F 29.88 in NNW 8.1 mph 12.7 mph 65 % 0.00 in
20:50 28.9 °F 17.9 °F 29.88 in NW 8.9 mph 23.0 mph 63 % 0.00 in
20:55 28.8 °F 18.1 °F 29.89 in WSW 9.8 mph 11.5 mph 64 % 0.00 in
21:00 28.8 °F 18.5 °F 29.89 in NNW 4.8 mph 13.8 mph 65 % 0.00 in
21:05 28.7 °F 18.1 °F 29.89 in WNW 6.7 mph 19.6 mph 64 % 0.00 in
21:10 28.7 °F 18.1 °F 29.90 in NNW 9.4 mph 21.9 mph 64 % 0.00 in
21:15 28.6 °F 18.3 °F 29.90 in NW 13.8 mph 24.2 mph 65 % 0.00 in
21:20 28.4 °F 18.1 °F 29.90 in NW 8.3 mph 19.6 mph 65 % 0.00 in
21:25 28.3 °F 18.4 °F 29.90 in WNW 9.7 mph 15.0 mph 66 % 0.00 in
21:30 28.1 °F 17.8 °F 29.92 in West 12.7 mph 25.3 mph 65 % 0.00 in
21:35 28.0 °F 17.7 °F 29.91 in NNW 9.9 mph 19.6 mph 65 % 0.00 in
21:40 27.8 °F 17.2 °F 29.92 in NNW 12.7 mph 24.2 mph 64 % 0.00 in
21:45 27.5 °F 16.9 °F 29.92 in NNW 6.5 mph 16.1 mph 64 % 0.00 in
21:50 27.4 °F 16.8 °F 29.92 in West 9.4 mph 18.4 mph 64 % 0.00 in
21:55 27.3 °F 16.7 °F 29.92 in North 7.1 mph 13.8 mph 64 % 0.00 in
22:00 27.1 °F 16.2 °F 29.93 in WNW 12.8 mph 18.4 mph 63 % 0.00 in
22:05 27.0 °F 16.1 °F 29.93 in NNW 10.3 mph 19.6 mph 63 % 0.00 in
22:10 26.9 °F 16.3 °F 29.94 in NNW 8.1 mph 21.9 mph 64 % 0.00 in
22:15 26.7 °F 16.5 °F 29.94 in NNW 6.3 mph 15.0 mph 65 % 0.00 in
22:20 26.6 °F 15.7 °F 29.94 in NW 10.2 mph 20.7 mph 63 % 0.00 in
22:25 26.4 °F 15.1 °F 29.94 in NW 12.5 mph 18.0 mph 62 % 0.00 in
22:30 26.2 °F 15.3 °F 29.95 in WNW 10.4 mph 18.4 mph 63 % 0.00 in
22:35 26.1 °F 15.2 °F 29.95 in NNW 12.2 mph 23.0 mph 63 % 0.00 in
22:40 25.9 °F 15.0 °F 29.95 in WNW 8.9 mph 19.6 mph 63 % 0.00 in
22:45 25.8 °F 15.3 °F 29.95 in North 8.5 mph 23.0 mph 64 % 0.00 in
22:50 25.6 °F 14.7 °F 29.95 in NW 10.9 mph 23.0 mph 63 % 0.00 in
22:55 25.4 °F 13.8 °F 29.95 in WNW 7.9 mph 21.9 mph 61 % 0.00 in
23:01 25.3 °F 14.5 °F 29.95 in NNW 7.5 mph 17.3 mph 63 % 0.00 in
23:06 25.1 °F 13.9 °F 29.96 in NW 11.6 mph 23.0 mph 62 % 0.00 in
23:11 24.9 °F 13.3 °F 29.96 in WNW 12.2 mph 26.5 mph 61 % 0.00 in
23:16 24.8 °F 12.1 °F 29.96 in WNW 12.4 mph 25.3 mph 58 % 0.00 in
23:21 24.5 °F 11.8 °F 29.96 in West 11.8 mph 21.9 mph 58 % 0.00 in
23:26 24.4 °F 11.7 °F 29.96 in NW 11.1 mph 19.6 mph 58 % 0.00 in
23:31 24.2 °F 11.5 °F 29.97 in WSW 10.7 mph 23.0 mph 58 % 0.00 in
23:36 24.1 °F 11.8 °F 29.97 in NNW 7.6 mph 13.8 mph 59 % 0.00 in
23:41 24.0 °F 11.0 °F 29.97 in WNW 8.2 mph 19.0 mph 57 % 0.00 in
23:46 23.9 °F 10.9 °F 29.97 in NW 10.7 mph 24.0 mph 57 % 0.00 in
23:51 23.8 °F 11.2 °F 29.97 in WNW 8.6 mph 19.0 mph 58 % 0.00 in
23:56 23.6 °F 11.0 °F 29.97 in WNW 9.0 mph 15.0 mph 58 % 0.00 in
Crab Meadow Weather
Compliments of Weather Underground - 3 mb

Script developed by  Jim McMurry - jmcmurry@mwt.net Adapted for the template by  Wim van der Kuil - Leuven-Template.eu

Astronomy: Water covers 71% of Earth.